UKV454 EGKK-LJLJ
Flight info
| Callsign | UKV454 |
|---|---|
| Flight time | N/A |
| Altitude | 37000 |
| Route | ODVIK Y311 DVR UL9 KONAN DCT KOK DCT REMBA DCT RITAX DCT PITES DCT BABEG DCT KUMOM DCT LUMUS LUMUS4L |
| Aircraft | A320/M-SDE3FGHIRWY/LB1 |
Departure
| Time | N/A |
|---|---|
| Airport | London Gatwick Airport (EGKK) |
Arrival
| Time | 2026-04-21 11:42 |
|---|---|
| Airport | Ljubljana Jože Pučnik Airport (LJLJ) |
| Time | Latitude | Longitude | Altitude | Speed | Heading |
|---|---|---|---|---|---|
| 2026-04-21 11:13 | 47.72184 | 11.99003 | 37116 ft | 487 kts | 122° |
| 2026-04-21 11:13 | 47.70372 | 12.03249 | 37116 ft | 487 kts | 122° |
| 2026-04-21 11:13 | 47.66738 | 12.11726 | 37112 ft | 487 kts | 123° |
| 2026-04-21 11:14 | 47.63100 | 12.20187 | 37112 ft | 487 kts | 122° |
| 2026-04-21 11:14 | 47.59460 | 12.28642 | 37110 ft | 486 kts | 123° |
| 2026-04-21 11:15 | 47.55821 | 12.37010 | 37115 ft | 486 kts | 126° |
| 2026-04-21 11:15 | 47.51688 | 12.44947 | 37114 ft | 489 kts | 129° |
| 2026-04-21 11:16 | 47.47503 | 12.52877 | 37114 ft | 489 kts | 129° |
| 2026-04-21 11:16 | 47.43318 | 12.60804 | 37113 ft | 489 kts | 129° |
| 2026-04-21 11:17 | 47.39124 | 12.68713 | 37001 ft | 489 kts | 129° |
| 2026-04-21 11:17 | 47.37028 | 12.72662 | 36744 ft | 489 kts | 129° |
| 2026-04-21 11:17 | 47.34927 | 12.76621 | 36291 ft | 491 kts | 129° |
| 2026-04-21 11:18 | 47.32806 | 12.80606 | 35360 ft | 497 kts | 129° |
| 2026-04-21 11:18 | 47.30658 | 12.84627 | 34590 ft | 500 kts | 129° |
| 2026-04-21 11:18 | 47.28507 | 12.88642 | 33938 ft | 498 kts | 129° |
| 2026-04-21 11:18 | 47.26365 | 12.92641 | 33322 ft | 496 kts | 130° |
| 2026-04-21 11:19 | 47.24238 | 12.96615 | 32678 ft | 494 kts | 130° |
| 2026-04-21 11:19 | 47.22120 | 13.00573 | 32031 ft | 490 kts | 130° |
| 2026-04-21 11:19 | 47.20012 | 13.04501 | 31409 ft | 488 kts | 130° |
| 2026-04-21 11:19 | 47.17907 | 13.08416 | 30798 ft | 487 kts | 130° |
| 2026-04-21 11:20 | 47.15807 | 13.12309 | 30184 ft | 486 kts | 130° |
| 2026-04-21 11:20 | 47.13708 | 13.16193 | 29511 ft | 483 kts | 130° |
| 2026-04-21 11:20 | 47.11629 | 13.20037 | 28916 ft | 479 kts | 130° |
| 2026-04-21 11:20 | 47.09569 | 13.23842 | 28329 ft | 474 kts | 130° |
| 2026-04-21 11:21 | 47.07530 | 13.27607 | 27861 ft | 467 kts | 130° |
| 2026-04-21 11:21 | 47.05514 | 13.31316 | 27281 ft | 462 kts | 130° |
| 2026-04-21 11:21 | 47.03526 | 13.34975 | 26726 ft | 457 kts | 130° |
| 2026-04-21 11:21 | 47.01585 | 13.38552 | 26224 ft | 450 kts | 130° |
| 2026-04-21 11:22 | 46.99640 | 13.42129 | 25627 ft | 448 kts | 130° |
| 2026-04-21 11:22 | 46.97709 | 13.45665 | 25112 ft | 442 kts | 130° |
| 2026-04-21 11:22 | 46.95792 | 13.49165 | 24571 ft | 438 kts | 130° |
| 2026-04-21 11:22 | 46.93892 | 13.52630 | 24044 ft | 436 kts | 130° |
| 2026-04-21 11:23 | 46.91996 | 13.56078 | 23482 ft | 433 kts | 130° |
| 2026-04-21 11:23 | 46.90119 | 13.59495 | 22940 ft | 428 kts | 130° |
| 2026-04-21 11:23 | 46.88267 | 13.62874 | 22473 ft | 423 kts | 130° |
| 2026-04-21 11:23 | 46.86438 | 13.66207 | 21864 ft | 421 kts | 130° |
| 2026-04-21 11:24 | 46.84622 | 13.69513 | 21476 ft | 413 kts | 130° |
| 2026-04-21 11:24 | 46.82835 | 13.72761 | 20979 ft | 409 kts | 130° |
| 2026-04-21 11:24 | 46.81058 | 13.75987 | 20509 ft | 405 kts | 130° |
| 2026-04-21 11:24 | 46.79301 | 13.79174 | 20026 ft | 401 kts | 130° |
| 2026-04-21 11:25 | 46.77556 | 13.82326 | 19585 ft | 398 kts | 130° |
| 2026-04-21 11:25 | 46.75827 | 13.85452 | 19146 ft | 394 kts | 130° |
| 2026-04-21 11:25 | 46.74120 | 13.88535 | 18575 ft | 387 kts | 130° |
| 2026-04-21 11:25 | 46.72432 | 13.91575 | 17680 ft | 383 kts | 130° |
| 2026-04-21 11:26 | 46.70785 | 13.94530 | 17220 ft | 368 kts | 130° |
| 2026-04-21 11:26 | 46.69208 | 13.97360 | 16765 ft | 352 kts | 130° |
| 2026-04-21 11:26 | 46.67694 | 14.00080 | 16330 ft | 340 kts | 130° |
| 2026-04-21 11:26 | 46.66231 | 14.02711 | 15919 ft | 329 kts | 130° |
| 2026-04-21 11:27 | 46.64808 | 14.05266 | 15511 ft | 322 kts | 130° |
| 2026-04-21 11:27 | 46.63399 | 14.07784 | 15134 ft | 320 kts | 130° |
| 2026-04-21 11:27 | 46.62019 | 14.10251 | 14741 ft | 317 kts | 130° |
| 2026-04-21 11:27 | 46.60625 | 14.12739 | 14355 ft | 317 kts | 130° |
| 2026-04-21 11:28 | 46.59107 | 14.15066 | 13971 ft | 317 kts | 140° |
| 2026-04-21 11:28 | 46.57325 | 14.16933 | 13577 ft | 316 kts | 152° |
| 2026-04-21 11:28 | 46.55398 | 14.18438 | 13199 ft | 314 kts | 154° |
| 2026-04-21 11:28 | 46.53474 | 14.19928 | 12818 ft | 313 kts | 153° |
| 2026-04-21 11:29 | 46.51554 | 14.21421 | 12439 ft | 312 kts | 153° |
| 2026-04-21 11:29 | 46.49642 | 14.22910 | 12055 ft | 312 kts | 153° |
| 2026-04-21 11:29 | 46.47733 | 14.24397 | 11665 ft | 311 kts | 153° |
| 2026-04-21 11:29 | 46.45832 | 14.25876 | 11277 ft | 310 kts | 152° |
| 2026-04-21 11:30 | 46.43926 | 14.27353 | 10700 ft | 316 kts | 152° |
| 2026-04-21 11:30 | 46.41985 | 14.28855 | 10379 ft | 312 kts | 152° |
| 2026-04-21 11:30 | 46.40100 | 14.30314 | 10169 ft | 304 kts | 152° |
| 2026-04-21 11:30 | 46.38241 | 14.31752 | 9819 ft | 302 kts | 152° |
| 2026-04-21 11:31 | 46.36402 | 14.33172 | 9443 ft | 295 kts | 152° |
| 2026-04-21 11:31 | 46.34620 | 14.34550 | 9061 ft | 284 kts | 151° |
| 2026-04-21 11:31 | 46.32916 | 14.35869 | 8697 ft | 273 kts | 151° |
| 2026-04-21 11:31 | 46.31267 | 14.37144 | 8335 ft | 265 kts | 151° |
| 2026-04-21 11:32 | 46.29665 | 14.38379 | 7972 ft | 258 kts | 151° |
| 2026-04-21 11:32 | 46.28097 | 14.39589 | 7612 ft | 254 kts | 151° |
| 2026-04-21 11:32 | 46.26549 | 14.40781 | 7353 ft | 252 kts | 151° |
| 2026-04-21 11:32 | 46.25001 | 14.41972 | 7113 ft | 251 kts | 150° |
| 2026-04-21 11:33 | 46.23510 | 14.43262 | 7000 ft | 249 kts | 140° |
| 2026-04-21 11:33 | 46.22169 | 14.44837 | 7015 ft | 248 kts | 139° |
| 2026-04-21 11:33 | 46.20834 | 14.46412 | 7015 ft | 248 kts | 138° |
| 2026-04-21 11:33 | 46.19493 | 14.47984 | 7012 ft | 249 kts | 138° |
| 2026-04-21 11:34 | 46.18145 | 14.49555 | 7013 ft | 248 kts | 138° |
| 2026-04-21 11:34 | 46.16836 | 14.51078 | 6976 ft | 237 kts | 139° |
| 2026-04-21 11:34 | 46.15564 | 14.52554 | 6804 ft | 231 kts | 140° |
| 2026-04-21 11:34 | 46.14325 | 14.53985 | 6619 ft | 225 kts | 139° |
| 2026-04-21 11:35 | 46.13115 | 14.55383 | 6443 ft | 220 kts | 139° |
| 2026-04-21 11:35 | 46.11924 | 14.56757 | 6185 ft | 218 kts | 139° |
| 2026-04-21 11:35 | 46.10741 | 14.58116 | 5921 ft | 217 kts | 139° |
| 2026-04-21 11:35 | 46.09566 | 14.59465 | 5665 ft | 215 kts | 139° |
| 2026-04-21 11:36 | 46.08404 | 14.60803 | 5405 ft | 213 kts | 138° |
| 2026-04-21 11:36 | 46.07268 | 14.62113 | 5151 ft | 211 kts | 139° |
| 2026-04-21 11:36 | 46.06196 | 14.63532 | 4898 ft | 207 kts | 121° |
| 2026-04-21 11:36 | 46.05775 | 14.65439 | 4645 ft | 200 kts | 86° |
| 2026-04-21 11:37 | 46.06245 | 14.67252 | 4412 ft | 196 kts | 52° |
| 2026-04-21 11:37 | 46.07292 | 14.68497 | 4176 ft | 197 kts | 24° |
| 2026-04-21 11:37 | 46.08637 | 14.68731 | 4034 ft | 197 kts | 358° |
| 2026-04-21 11:37 | 46.09982 | 14.68367 | 4001 ft | 198 kts | 343° |
| 2026-04-21 11:38 | 46.11177 | 14.67354 | 4004 ft | 202 kts | 320° |
| 2026-04-21 11:38 | 46.12083 | 14.65789 | 4012 ft | 204 kts | 309° |
| 2026-04-21 11:38 | 46.12919 | 14.64161 | 3994 ft | 196 kts | 309° |
| 2026-04-21 11:38 | 46.13711 | 14.62618 | 3804 ft | 188 kts | 308° |
| 2026-04-21 11:39 | 46.14484 | 14.61117 | 3556 ft | 185 kts | 309° |
| 2026-04-21 11:39 | 46.15246 | 14.59638 | 3318 ft | 183 kts | 309° |
| 2026-04-21 11:39 | 46.16004 | 14.58164 | 3073 ft | 182 kts | 309° |
| 2026-04-21 11:39 | 46.16749 | 14.56715 | 2833 ft | 177 kts | 308° |
| 2026-04-21 11:40 | 46.17472 | 14.55308 | 2580 ft | 172 kts | 308° |
| 2026-04-21 11:40 | 46.18184 | 14.53924 | 2362 ft | 172 kts | 308° |
| 2026-04-21 11:40 | 46.18891 | 14.52528 | 2118 ft | 171 kts | 307° |
| 2026-04-21 11:40 | 46.19568 | 14.51170 | 1881 ft | 162 kts | 307° |
| 2026-04-21 11:41 | 46.20234 | 14.49914 | 1681 ft | 154 kts | 308° |
| 2026-04-21 11:41 | 46.20868 | 14.48688 | 1518 ft | 152 kts | 307° |
| 2026-04-21 11:41 | 46.21498 | 14.47464 | 1299 ft | 152 kts | 307° |
| 2026-04-21 11:41 | 46.22085 | 14.46320 | 1259 ft | 122 kts | 306° |
| 2026-04-21 11:42 | 46.22467 | 14.45575 | 1250 ft | 53 kts | 308° |
| 2026-04-21 11:42 | 46.22678 | 14.45366 | 1247 ft | 22 kts | 344° |
| 2026-04-21 11:42 | 46.22757 | 14.45336 | 1254 ft | 7 kts | 349° |
| 2026-04-21 11:42 | 46.22801 | 14.45323 | 1253 ft | 6 kts | 346° |
| 2026-04-21 11:43 | 46.22830 | 14.45305 | 1254 ft | 3 kts | 330° |
| 2026-04-21 11:43 | 46.22849 | 14.45282 | 1259 ft | 6 kts | 313° |
| 2026-04-21 11:43 | 46.22885 | 14.45214 | 1257 ft | 11 kts | 306° |
| 2026-04-21 11:43 | 46.22952 | 14.45122 | 1253 ft | 13 kts | 354° |
| 2026-04-21 11:44 | 46.23025 | 14.45177 | 1262 ft | 9 kts | 36° |
| 2026-04-21 11:44 | 46.23045 | 14.45206 | 1263 ft | 0 kts | 56° |
| 2026-04-21 11:45 | 46.23046 | 14.45208 | 1263 ft | 1 kts | 56° |
| 2026-04-21 11:45 | 46.23048 | 14.45217 | 1262 ft | 3 kts | 72° |
| 2026-04-21 11:45 | 46.23022 | 14.45280 | 1263 ft | 12 kts | 126° |
| 2026-04-21 11:45 | 46.23036 | 14.45362 | 1260 ft | 6 kts | 32° |
| 2026-04-21 11:46 | 46.23050 | 14.45373 | 1260 ft | 0 kts | 28° |